Time;durP1;ratioP1;P1;durP2;ratioP2;P2;SDS_P1;SDS_P2;PMS_P1;PMS_P2;Temp;Humidity;BMP_temperature;BMP_pressure;BME280_temperature;BME280_humidity;BME280_pressure;Samples;Min_cycle;Max_cycle;Signal;HPM_P1;HPM_P2
2022/07/07 00:03:10;;;;;;;3.90;1.80;;;;;;;15.75;85.84;100570.05;713940;1174;115137;-77
2022/07/07 00:18:14;;;;;;;3.93;2.30;;;;;;;15.64;86.83;100562.45;714104;1173;115674;-79
2022/07/07 00:33:16;;;;;;;3.90;1.70;;;;;;;15.60;87.56;100550.54;713983;1174;114349;-78
2022/07/07 00:48:20;;;;;;;2.08;1.53;;;;;;;15.64;87.29;100541.29;714176;1174;114692;-78
2022/07/07 01:03:23;;;;;;;3.00;1.65;;;;;;;15.77;86.61;100535.50;714147;1174;114153;-78
2022/07/07 01:18:26;;;;;;;3.93;1.67;;;;;;;15.78;86.75;100518.66;714210;1174;115120;-78
2022/07/07 01:33:28;;;;;;;4.47;1.73;;;;;;;15.78;86.52;100500.14;714386;1174;114210;-78
2022/07/07 01:48:32;;;;;;;3.35;1.25;;;;;;;15.70;87.12;100500.95;713980;1174;115262;-78
2022/07/07 02:03:35;;;;;;;2.43;1.25;;;;;;;15.79;86.79;100499.16;713720;1174;114646;-78
2022/07/07 02:18:39;;;;;;;2.55;1.00;;;;;;;15.76;87.27;100492.38;713959;1174;114025;-77
2022/07/07 02:33:42;;;;;;;2.90;0.95;;;;;;;15.70;87.55;100498.30;714145;1173;115454;-78
2022/07/07 02:48:44;;;;;;;2.63;1.65;;;;;;;15.74;88.18;100489.05;714523;1174;115393;-78
2022/07/07 03:03:47;;;;;;;3.93;0.95;;;;;;;15.80;88.63;100485.80;714482;1174;115649;-78
2022/07/07 03:18:50;;;;;;;4.45;1.50;;;;;;;15.86;89.26;100486.13;714130;1173;114596;-77
2022/07/07 03:33:52;;;;;;;2.80;1.10;;;;;;;16.05;88.52;100480.51;714397;1174;114497;-73
2022/07/07 03:48:55;;;;;;;1.33;1.00;;;;;;;16.10;88.92;100478.19;714686;1174;114322;-72
2022/07/07 04:03:57;;;;;;;2.85;1.20;;;;;;;16.20;89.50;100475.36;714427;1174;114936;-73
2022/07/07 04:19:07;;;;;;;1.65;1.20;;;;;;;16.41;89.41;100474.83;714688;1174;120901;-73
2022/07/07 04:34:11;;;;;;;5.65;1.60;;;;;;;16.52;89.75;100470.98;714201;1167;115211;-79
2022/07/07 04:49:13;;;;;;;4.03;1.80;;;;;;;16.71;90.15;100475.09;714465;1174;114455;-79
2022/07/07 05:04:21;;;;;;;6.50;2.13;;;;;;;17.04;89.62;100468.87;714050;1174;114817;-79
2022/07/07 05:19:24;;;;;;;3.13;2.37;;;;;;;17.24;89.48;100458.65;715105;1173;114110;-78
2022/07/07 05:34:27;;;;;;;3.60;2.25;;;;;;;17.91;88.65;100454.53;714911;1174;115773;-80
2022/07/07 05:49:29;;;;;;;8.80;2.55;;;;;;;18.07;86.49;100446.44;715903;1174;114279;-80
2022/07/07 06:04:32;;;;;;;4.28;1.95;;;;;;;18.50;83.77;100455.63;714719;1174;114098;-78
2022/07/07 06:19:37;;;;;;;2.43;1.30;;;;;;;18.88;81.96;100451.00;713991;1174;114109;-78
2022/07/07 06:34:40;;;;;;;4.65;1.78;;;;;;;19.11;79.30;100440.28;714182;1174;114184;-78
2022/07/07 06:49:42;;;;;;;3.10;1.80;;;;;;;19.63;77.76;100426.87;714483;1174;114275;-77
2022/07/07 07:04:46;;;;;;;2.37;1.53;;;;;;;19.84;74.09;100444.68;714798;1174;114081;-78
2022/07/07 07:19:49;;;;;;;7.75;1.20;;;;;;;20.48;73.17;100424.19;714593;1174;114068;-78
2022/07/07 07:34:51;;;;;;;1.33;1.00;;;;;;;20.58;70.01;100427.33;714176;1174;114089;-77
2022/07/07 07:49:54;;;;;;;4.43;0.98;;;;;;;20.22;69.87;100425.70;714013;1173;115529;-78
2022/07/07 08:04:56;;;;;;;3.53;1.20;;;;;;;20.62;69.48;100415.25;714303;1174;114055;-77
2022/07/07 08:19:59;;;;;;;5.98;1.45;;;;;;;20.66;68.58;100415.67;713971;1174;114157;-77
2022/07/07 08:35:02;;;;;;;6.88;1.83;;;;;;;20.43;69.66;100416.80;713833;1174;114655;-76
2022/07/07 08:50:05;;;;;;;3.70;1.38;;;;;;;22.38;67.55;100403.75;714580;1174;115528;-77
2022/07/07 09:05:08;;;;;;;4.27;1.77;;;;;;;22.71;64.45;100400.98;713962;1174;115799;-77
2022/07/07 09:20:12;;;;;;;0.57;0.30;;;;;;;22.91;60.65;100405.38;714244;1174;114223;-78
2022/07/07 09:51:16;;;;;;;1.13;0.55;;;;;;;22.32;60.21;100402.72;714457;1174;115368;-78
2022/07/07 10:06:19;;;;;;;3.70;1.23;;;;;;;22.94;59.25;100407.64;714144;1174;115493;-78
2022/07/07 10:21:23;;;;;;;2.08;0.60;;;;;;;22.17;59.94;100415.50;714174;1174;114517;-77
2022/07/07 10:36:26;;;;;;;1.05;0.68;;;;;;;21.86;61.39;100415.13;714314;1174;115517;-78
2022/07/07 10:51:29;;;;;;;4.55;0.75;;;;;;;22.38;63.04;100423.30;714309;1174;115443;-79
2022/07/07 11:07:10;;;;;;;5.80;0.98;;;;;;;22.80;62.25;100420.25;714151;1173;114570;-78
2022/07/07 11:22:17;;;;;;;4.27;0.60;;;;;;;22.02;62.15;100423.75;714029;1174;114067;-77
2022/07/07 11:37:26;;;;;;;3.93;0.70;;;;;;;22.56;62.43;100419.13;714043;1174;114658;-78
2022/07/07 11:52:28;;;;;;;4.43;0.67;;;;;;;23.21;61.24;100407.51;714114;1174;115577;-80
2022/07/07 12:07:31;;;;;;;5.08;1.28;;;;;;;22.90;60.55;100422.48;714368;1174;114193;-77
2022/07/07 12:22:39;;;;;;;3.23;0.77;;;;;;;22.43;60.97;100418.16;714269;1173;115715;-78
2022/07/07 12:37:45;;;;;;;7.07;1.07;;;;;;;22.56;60.62;100419.13;713908;1174;114103;-79
2022/07/07 12:53:00;;;;;;;3.23;1.10;;;;;;;23.05;60.98;100408.81;714876;1174;114437;-77
2022/07/07 13:08:02;;;;;;;2.05;1.10;;;;;;;23.46;59.77;100396.02;714251;1174;114550;-77
2022/07/07 13:23:05;;;;;;;3.93;1.07;;;;;;;23.74;57.71;100388.38;713839;1174;115716;-78
2022/07/07 13:38:08;;;;;;;6.00;1.10;;;;;;;23.86;58.37;100395.66;714022;1174;114631;-78
2022/07/07 13:53:12;;;;;;;4.68;0.95;;;;;;;23.65;58.60;100395.05;714648;1174;114137;-79
2022/07/07 14:08:14;;;;;;;5.03;1.07;;;;;;;23.78;56.84;100374.53;716881;1174;114116;-77
2022/07/07 14:23:16;;;;;;;5.68;1.00;;;;;;;25.23;56.43;100366.80;714608;1174;114049;-77
2022/07/07 14:38:19;;;;;;;1.63;0.58;;;;;;;24.59;55.46;100365.41;714271;1174;114004;-77
2022/07/07 14:53:22;;;;;;;2.05;0.70;;;;;;;24.45;56.36;100355.89;714076;1174;114787;-76
2022/07/07 15:08:25;;;;;;;2.98;1.10;;;;;;;23.66;57.41;100364.53;714455;1174;115592;-78
2022/07/07 15:23:31;;;;;;;2.65;1.28;;;;;;;23.52;57.61;100358.48;716263;1174;114312;-76
2022/07/07 15:38:36;;;;;;;2.68;1.33;;;;;;;23.56;57.79;100358.88;714342;1174;115732;-80
2022/07/07 15:53:39;;;;;;;1.40;1.10;;;;;;;24.31;56.47;100359.77;714490;1174;114108;-80
2022/07/07 16:08:42;;;;;;;2.37;1.30;;;;;;;23.95;56.22;100356.06;714441;1174;114201;-79
2022/07/07 16:23:48;;;;;;;4.68;1.40;;;;;;;23.68;56.84;100358.98;714416;1174;114843;-79
2022/07/07 16:38:51;;;;;;;1.40;0.90;;;;;;;23.40;57.66;100363.73;716109;1174;115207;-79
2022/07/07 16:53:56;;;;;;;27.70;11.68;;;;;;;23.14;60.34;100377.31;715027;1174;115710;-77
2022/07/07 17:09:04;;;;;;;6.30;3.80;;;;;;;22.86;61.00;100391.86;715034;1174;115739;-82
2022/07/07 17:24:07;;;;;;;16.43;8.63;;;;;;;22.42;62.73;100392.45;714731;1174;114505;-78
2022/07/07 17:39:10;;;;;;;3.65;2.08;;;;;;;22.17;63.22;100396.80;717052;1174;114765;-80
2022/07/07 17:54:14;;;;;;;4.07;1.93;;;;;;;21.93;64.72;100407.11;714849;1174;115076;-76
2022/07/07 18:09:16;;;;;;;2.80;1.80;;;;;;;21.74;65.42;100412.26;714594;1174;115234;-80
2022/07/07 18:24:19;;;;;;;4.27;2.17;;;;;;;21.60;65.92;100419.46;714797;1174;114916;-79
2022/07/07 18:39:22;;;;;;;2.80;2.05;;;;;;;21.34;67.21;100424.72;715714;1174;114894;-79
2022/07/07 18:54:27;;;;;;;7.90;3.90;;;;;;;21.19;67.80;100433.72;714589;1174;114012;-78
2022/07/07 19:09:31;;;;;;;9.05;4.65;;;;;;;21.21;68.15;100453.02;715332;1174;114611;-79
2022/07/07 19:24:34;;;;;;;4.55;1.95;;;;;;;21.11;68.60;100463.25;715185;1174;114772;-80
2022/07/07 19:39:37;;;;;;;6.95;1.70;;;;;;;21.04;69.04;100471.23;717158;1174;115468;-80
2022/07/07 19:54:40;;;;;;;6.70;2.60;;;;;;;21.12;70.29;100488.91;715051;1174;115174;-77
2022/07/07 20:09:43;;;;;;;3.20;2.07;;;;;;;20.94;71.18;100497.44;714803;1174;114829;-79
2022/07/07 20:24:46;;;;;;;5.03;2.20;;;;;;;20.87;71.78;100491.27;714311;1174;114365;-78
2022/07/07 20:39:55;;;;;;;5.75;1.83;;;;;;;20.86;72.05;100502.94;714752;1174;114643;-81
2022/07/07 20:54:59;;;;;;;7.77;2.37;;;;;;;20.76;72.37;100505.98;715207;1174;115569;-80
2022/07/07 21:10:02;;;;;;;4.58;2.73;;;;;;;20.54;73.76;100519.34;715544;1173;114153;-80
2022/07/07 21:25:07;;;;;;;5.30;2.20;;;;;;;20.40;75.12;100526.44;714755;1173;114695;-81
2022/07/07 21:40:10;;;;;;;4.85;1.88;;;;;;;20.14;75.99;100542.19;715450;1174;115793;-80
2022/07/07 21:55:12;;;;;;;4.63;1.77;;;;;;;20.03;76.62;100549.67;714747;1174;114976;-80
2022/07/07 22:10:15;;;;;;;4.03;1.83;;;;;;;19.97;77.45;100561.11;715495;1173;115031;-77
2022/07/07 22:25:17;;;;;;;7.67;3.13;;;;;;;19.97;78.84;100577.08;715898;1174;114412;-78
2022/07/07 22:40:20;;;;;;;5.10;3.00;;;;;;;19.85;79.88;100579.42;715131;1174;114303;-80
2022/07/07 22:55:22;;;;;;;5.83;3.37;;;;;;;19.61;81.29;100588.53;714262;1174;115733;-79
2022/07/07 23:10:24;;;;;;;6.95;3.20;;;;;;;19.68;82.57;100602.75;714591;1174;115328;-80
2022/07/07 23:25:27;;;;;;;2.65;2.10;;;;;;;19.51;83.00;100599.48;715843;1174;114442;-79
2022/07/07 23:40:31;;;;;;;4.75;2.50;;;;;;;19.49;83.06;100609.47;715827;1174;115540;-79
2022/07/07 23:55:33;;;;;;;6.15;3.58;;;;;;;19.55;83.89;100615.91;713864;1173;114135;-80
